sensor_id;sensor_type;location;lat;lon;timestamp;P1;durP1;ratioP1;P2;durP2;ratioP2
49223;SDS011;35050;51.316;5.994;2023-02-24T00:02:09;9.32;;;2.05;;
49223;SDS011;35050;51.316;5.994;2023-02-24T00:04:36;7.68;;;2.38;;
49223;SDS011;35050;51.316;5.994;2023-02-24T00:07:03;4.95;;;1.85;;
49223;SDS011;35050;51.316;5.994;2023-02-24T00:09:30;5.43;;;1.27;;
49223;SDS011;35050;51.316;5.994;2023-02-24T00:12:01;6.43;;;1.40;;
49223;SDS011;35050;51.316;5.994;2023-02-24T00:14:29;7.13;;;2.10;;
49223;SDS011;35050;51.316;5.994;2023-02-24T00:16:57;7.32;;;2.70;;
49223;SDS011;35050;51.316;5.994;2023-02-24T00:19:24;8.70;;;2.30;;
49223;SDS011;35050;51.316;5.994;2023-02-24T00:21:51;11.07;;;2.00;;
49223;SDS011;35050;51.316;5.994;2023-02-24T00:24:23;6.13;;;1.70;;
49223;SDS011;35050;51.316;5.994;2023-02-24T00:26:50;6.65;;;2.00;;
49223;SDS011;35050;51.316;5.994;2023-02-24T00:29:26;5.75;;;1.60;;
49223;SDS011;35050;51.316;5.994;2023-02-24T00:31:53;8.30;;;2.20;;
49223;SDS011;35050;51.316;5.994;2023-02-24T00:34:31;6.43;;;2.00;;
49223;SDS011;35050;51.316;5.994;2023-02-24T00:36:59;9.02;;;1.92;;
49223;SDS011;35050;51.316;5.994;2023-02-24T00:39:26;9.85;;;2.47;;
49223;SDS011;35050;51.316;5.994;2023-02-24T00:41:54;11.02;;;2.00;;
49223;SDS011;35050;51.316;5.994;2023-02-24T00:44:29;12.02;;;2.45;;
49223;SDS011;35050;51.316;5.994;2023-02-24T00:46:59;7.18;;;2.08;;
49223;SDS011;35050;51.316;5.994;2023-02-24T00:49:26;8.27;;;2.40;;
49223;SDS011;35050;51.316;5.994;2023-02-24T00:51:53;8.02;;;2.13;;
49223;SDS011;35050;51.316;5.994;2023-02-24T00:54:19;6.00;;;1.70;;
49223;SDS011;35050;51.316;5.994;2023-02-24T00:56:46;7.68;;;2.35;;
49223;SDS011;35050;51.316;5.994;2023-02-24T00:59:13;6.70;;;1.70;;
49223;SDS011;35050;51.316;5.994;2023-02-24T01:01:40;8.15;;;2.15;;
49223;SDS011;35050;51.316;5.994;2023-02-24T01:04:08;9.85;;;2.70;;
49223;SDS011;35050;51.316;5.994;2023-02-24T01:06:40;6.53;;;2.00;;
49223;SDS011;35050;51.316;5.994;2023-02-24T01:09:10;7.45;;;2.22;;
49223;SDS011;35050;51.316;5.994;2023-02-24T01:11:39;8.18;;;2.10;;
49223;SDS011;35050;51.316;5.994;2023-02-24T01:14:26;9.30;;;2.40;;
49223;SDS011;35050;51.316;5.994;2023-02-24T01:16:57;4.40;;;1.75;;
49223;SDS011;35050;51.316;5.994;2023-02-24T01:19:24;9.38;;;2.53;;
49223;SDS011;35050;51.316;5.994;2023-02-24T01:21:55;10.73;;;2.90;;
49223;SDS011;35050;51.316;5.994;2023-02-24T01:24:22;8.27;;;3.22;;
49223;SDS011;35050;51.316;5.994;2023-02-24T01:26:48;11.70;;;2.50;;
49223;SDS011;35050;51.316;5.994;2023-02-24T01:29:15;9.13;;;2.65;;
49223;SDS011;35050;51.316;5.994;2023-02-24T01:31:40;13.50;;;2.97;;
49223;SDS011;35050;51.316;5.994;2023-02-24T01:34:08;10.18;;;2.42;;
49223;SDS011;35050;51.316;5.994;2023-02-24T01:36:35;4.60;;;1.95;;
49223;SDS011;35050;51.316;5.994;2023-02-24T01:39:03;8.77;;;2.65;;
49223;SDS011;35050;51.316;5.994;2023-02-24T01:41:31;9.23;;;2.40;;
49223;SDS011;35050;51.316;5.994;2023-02-24T01:44:00;11.52;;;2.60;;
49223;SDS011;35050;51.316;5.994;2023-02-24T01:46:34;11.60;;;2.70;;
49223;SDS011;35050;51.316;5.994;2023-02-24T01:49:04;11.00;;;2.47;;
49223;SDS011;35050;51.316;5.994;2023-02-24T01:51:34;10.68;;;2.53;;
49223;SDS011;35050;51.316;5.994;2023-02-24T01:54:03;9.68;;;2.58;;
49223;SDS011;35050;51.316;5.994;2023-02-24T01:56:32;10.68;;;2.50;;
49223;SDS011;35050;51.316;5.994;2023-02-24T01:58:58;12.32;;;2.63;;
49223;SDS011;35050;51.316;5.994;2023-02-24T02:01:25;10.43;;;2.70;;
49223;SDS011;35050;51.316;5.994;2023-02-24T02:03:52;9.85;;;2.45;;
49223;SDS011;35050;51.316;5.994;2023-02-24T02:06:26;10.15;;;2.88;;
49223;SDS011;35050;51.316;5.994;2023-02-24T02:08:52;7.07;;;2.20;;
49223;SDS011;35050;51.316;5.994;2023-02-24T02:11:18;9.88;;;2.38;;
49223;SDS011;35050;51.316;5.994;2023-02-24T02:13:47;12.45;;;2.47;;
49223;SDS011;35050;51.316;5.994;2023-02-24T02:33:04;9.23;;;2.25;;
49223;SDS011;35050;51.316;5.994;2023-02-24T02:36:19;6.68;;;1.70;;
49223;SDS011;35050;51.316;5.994;2023-02-24T02:38:44;8.88;;;1.85;;
49223;SDS011;35050;51.316;5.994;2023-02-24T02:41:24;5.72;;;1.55;;
49223;SDS011;35050;51.316;5.994;2023-02-24T02:46:55;6.28;;;1.80;;
49223;SDS011;35050;51.316;5.994;2023-02-24T02:49:31;8.98;;;1.88;;
49223;SDS011;35050;51.316;5.994;2023-02-24T02:52:03;6.55;;;1.55;;
49223;SDS011;35050;51.316;5.994;2023-02-24T02:54:37;6.43;;;1.42;;
49223;SDS011;35050;51.316;5.994;2023-02-24T02:57:33;8.48;;;1.98;;
49223;SDS011;35050;51.316;5.994;2023-02-24T03:00:06;4.35;;;1.20;;
49223;SDS011;35050;51.316;5.994;2023-02-24T03:02:45;5.85;;;1.85;;
49223;SDS011;35050;51.316;5.994;2023-02-24T03:05:20;4.85;;;1.55;;
49223;SDS011;35050;51.316;5.994;2023-02-24T03:07:53;5.80;;;1.67;;
49223;SDS011;35050;51.316;5.994;2023-02-24T03:10:22;8.93;;;1.92;;
49223;SDS011;35050;51.316;5.994;2023-02-24T03:12:52;4.80;;;1.42;;
49223;SDS011;35050;51.316;5.994;2023-02-24T03:15:19;6.68;;;1.85;;
49223;SDS011;35050;51.316;5.994;2023-02-24T03:17:48;8.25;;;2.03;;
49223;SDS011;35050;51.316;5.994;2023-02-24T03:22:49;6.43;;;1.85;;
49223;SDS011;35050;51.316;5.994;2023-02-24T03:25:31;10.88;;;2.20;;
49223;SDS011;35050;51.316;5.994;2023-02-24T03:28:14;6.57;;;2.03;;
49223;SDS011;35050;51.316;5.994;2023-02-24T03:31:15;9.02;;;2.13;;
49223;SDS011;35050;51.316;5.994;2023-02-24T03:33:50;5.90;;;1.75;;
49223;SDS011;35050;51.316;5.994;2023-02-24T03:36:27;6.38;;;1.70;;
49223;SDS011;35050;51.316;5.994;2023-02-24T03:38:53;8.68;;;2.33;;
49223;SDS011;35050;51.316;5.994;2023-02-24T03:41:22;8.63;;;2.08;;
49223;SDS011;35050;51.316;5.994;2023-02-24T03:43:54;8.20;;;2.20;;
49223;SDS011;35050;51.316;5.994;2023-02-24T03:46:22;8.45;;;2.08;;
49223;SDS011;35050;51.316;5.994;2023-02-24T03:48:50;8.57;;;2.42;;
49223;SDS011;35050;51.316;5.994;2023-02-24T03:51:22;10.55;;;2.30;;
49223;SDS011;35050;51.316;5.994;2023-02-24T04:02:06;10.10;;;2.30;;
49223;SDS011;35050;51.316;5.994;2023-02-24T04:04:38;11.15;;;2.63;;
49223;SDS011;35050;51.316;5.994;2023-02-24T04:14:53;7.45;;;2.00;;
49223;SDS011;35050;51.316;5.994;2023-02-24T04:17:28;6.72;;;1.83;;
49223;SDS011;35050;51.316;5.994;2023-02-24T04:20:02;7.38;;;2.15;;
49223;SDS011;35050;51.316;5.994;2023-02-24T04:22:37;6.32;;;1.88;;
49223;SDS011;35050;51.316;5.994;2023-02-24T04:25:05;4.80;;;1.67;;
49223;SDS011;35050;51.316;5.994;2023-02-24T04:27:37;7.95;;;1.90;;
49223;SDS011;35050;51.316;5.994;2023-02-24T04:30:05;8.77;;;2.50;;
49223;SDS011;35050;51.316;5.994;2023-02-24T04:32:34;5.47;;;2.00;;
49223;SDS011;35050;51.316;5.994;2023-02-24T04:35:04;7.68;;;2.10;;
49223;SDS011;35050;51.316;5.994;2023-02-24T04:37:33;6.20;;;1.73;;
49223;SDS011;35050;51.316;5.994;2023-02-24T04:40:00;7.55;;;2.00;;
49223;SDS011;35050;51.316;5.994;2023-02-24T04:42:26;7.75;;;2.08;;
49223;SDS011;35050;51.316;5.994;2023-02-24T04:44:52;6.72;;;2.03;;
49223;SDS011;35050;51.316;5.994;2023-02-24T04:47:18;7.78;;;2.00;;
49223;SDS011;35050;51.316;5.994;2023-02-24T04:49:44;7.40;;;1.73;;
49223;SDS011;35050;51.316;5.994;2023-02-24T04:52:10;9.63;;;2.53;;
49223;SDS011;35050;51.316;5.994;2023-02-24T04:54:36;4.43;;;1.80;;
49223;SDS011;35050;51.316;5.994;2023-02-24T04:57:02;4.72;;;1.65;;
49223;SDS011;35050;51.316;5.994;2023-02-24T04:59:31;3.53;;;1.15;;
49223;SDS011;35050;51.316;5.994;2023-02-24T05:01:56;8.13;;;2.05;;
49223;SDS011;35050;51.316;5.994;2023-02-24T05:04:25;8.55;;;1.85;;
49223;SDS011;35050;51.316;5.994;2023-02-24T05:06:51;6.68;;;1.83;;
49223;SDS011;35050;51.316;5.994;2023-02-24T05:09:17;7.95;;;1.83;;
49223;SDS011;35050;51.316;5.994;2023-02-24T05:11:43;2.70;;;1.27;;
49223;SDS011;35050;51.316;5.994;2023-02-24T05:14:13;5.25;;;1.70;;
49223;SDS011;35050;51.316;5.994;2023-02-24T05:16:41;5.53;;;1.90;;
49223;SDS011;35050;51.316;5.994;2023-02-24T05:19:08;6.68;;;2.10;;
49223;SDS011;35050;51.316;5.994;2023-02-24T05:21:54;5.85;;;1.33;;
49223;SDS011;35050;51.316;5.994;2023-02-24T05:24:22;5.78;;;1.80;;
49223;SDS011;35050;51.316;5.994;2023-02-24T05:26:49;6.65;;;1.48;;
49223;SDS011;35050;51.316;5.994;2023-02-24T05:29:22;5.65;;;1.70;;
49223;SDS011;35050;51.316;5.994;2023-02-24T05:31:50;7.65;;;1.58;;
49223;SDS011;35050;51.316;5.994;2023-02-24T05:34:18;3.53;;;1.38;;
49223;SDS011;35050;51.316;5.994;2023-02-24T05:36:44;5.55;;;1.50;;
49223;SDS011;35050;51.316;5.994;2023-02-24T05:39:10;2.63;;;1.20;;
49223;SDS011;35050;51.316;5.994;2023-02-24T05:41:43;5.05;;;1.42;;
49223;SDS011;35050;51.316;5.994;2023-02-24T05:44:10;4.72;;;1.50;;
49223;SDS011;35050;51.316;5.994;2023-02-24T05:46:38;6.10;;;1.67;;
49223;SDS011;35050;51.316;5.994;2023-02-24T05:49:13;6.10;;;1.40;;
49223;SDS011;35050;51.316;5.994;2023-02-24T05:51:51;4.50;;;1.60;;
49223;SDS011;35050;51.316;5.994;2023-02-24T05:54:19;7.15;;;1.70;;
49223;SDS011;35050;51.316;5.994;2023-02-24T05:56:47;6.68;;;1.70;;
49223;SDS011;35050;51.316;5.994;2023-02-24T05:59:13;7.70;;;1.80;;
49223;SDS011;35050;51.316;5.994;2023-02-24T06:01:42;5.97;;;1.60;;
49223;SDS011;35050;51.316;5.994;2023-02-24T06:04:11;8.27;;;2.00;;
49223;SDS011;35050;51.316;5.994;2023-02-24T06:06:44;7.72;;;1.63;;
49223;SDS011;35050;51.316;5.994;2023-02-24T06:09:14;5.25;;;1.60;;
49223;SDS011;35050;51.316;5.994;2023-02-24T06:11:40;5.10;;;1.83;;
49223;SDS011;35050;51.316;5.994;2023-02-24T06:14:09;4.80;;;1.48;;
49223;SDS011;35050;51.316;5.994;2023-02-24T06:16:36;3.38;;;1.30;;
49223;SDS011;35050;51.316;5.994;2023-02-24T06:19:04;6.75;;;2.08;;
49223;SDS011;35050;51.316;5.994;2023-02-24T06:21:30;4.70;;;1.70;;
49223;SDS011;35050;51.316;5.994;2023-02-24T06:23:56;5.55;;;1.45;;
49223;SDS011;35050;51.316;5.994;2023-02-24T06:26:23;6.82;;;1.75;;
49223;SDS011;35050;51.316;5.994;2023-02-24T06:28:54;3.15;;;1.50;;
49223;SDS011;35050;51.316;5.994;2023-02-24T06:31:21;2.95;;;1.30;;
49223;SDS011;35050;51.316;5.994;2023-02-24T06:33:47;5.95;;;2.75;;
49223;SDS011;35050;51.316;5.994;2023-02-24T06:36:13;6.45;;;1.77;;
49223;SDS011;35050;51.316;5.994;2023-02-24T06:38:40;7.53;;;1.98;;
49223;SDS011;35050;51.316;5.994;2023-02-24T06:41:06;3.22;;;1.60;;
49223;SDS011;35050;51.316;5.994;2023-02-24T06:43:39;9.13;;;1.60;;
49223;SDS011;35050;51.316;5.994;2023-02-24T06:46:07;3.67;;;1.33;;
49223;SDS011;35050;51.316;5.994;2023-02-24T06:48:35;6.60;;;1.25;;
49223;SDS011;35050;51.316;5.994;2023-02-24T06:51:12;4.32;;;1.20;;
49223;SDS011;35050;51.316;5.994;2023-02-24T06:53:40;6.03;;;1.40;;
49223;SDS011;35050;51.316;5.994;2023-02-24T06:56:13;6.22;;;1.40;;
49223;SDS011;35050;51.316;5.994;2023-02-24T06:58:44;5.38;;;1.70;;
49223;SDS011;35050;51.316;5.994;2023-02-24T07:01:12;5.30;;;1.48;;
49223;SDS011;35050;51.316;5.994;2023-02-24T07:03:42;4.95;;;1.40;;
49223;SDS011;35050;51.316;5.994;2023-02-24T07:06:31;1.90;;;1.02;;
49223;SDS011;35050;51.316;5.994;2023-02-24T07:09:02;4.20;;;1.20;;
49223;SDS011;35050;51.316;5.994;2023-02-24T07:11:40;6.68;;;1.40;;
49223;SDS011;35050;51.316;5.994;2023-02-24T07:14:08;4.95;;;1.70;;
49223;SDS011;35050;51.316;5.994;2023-02-24T07:16:35;4.32;;;1.35;;
49223;SDS011;35050;51.316;5.994;2023-02-24T07:19:06;2.92;;;1.38;;
49223;SDS011;35050;51.316;5.994;2023-02-24T07:21:35;5.57;;;1.55;;
49223;SDS011;35050;51.316;5.994;2023-02-24T07:24:07;3.85;;;1.17;;
49223;SDS011;35050;51.316;5.994;2023-02-24T07:26:37;5.13;;;1.95;;
49223;SDS011;35050;51.316;5.994;2023-02-24T07:29:09;6.10;;;1.70;;
49223;SDS011;35050;51.316;5.994;2023-02-24T07:31:36;5.50;;;2.08;;
49223;SDS011;35050;51.316;5.994;2023-02-24T07:34:03;6.72;;;1.60;;
49223;SDS011;35050;51.316;5.994;2023-02-24T07:36:30;11.73;;;2.97;;
49223;SDS011;35050;51.316;5.994;2023-02-24T07:39:03;5.27;;;2.00;;
49223;SDS011;35050;51.316;5.994;2023-02-24T07:41:32;2.88;;;1.25;;
49223;SDS011;35050;51.316;5.994;2023-02-24T07:43:58;7.80;;;1.65;;
49223;SDS011;35050;51.316;5.994;2023-02-24T07:46:27;4.93;;;1.73;;
49223;SDS011;35050;51.316;5.994;2023-02-24T07:48:54;6.13;;;1.95;;
49223;SDS011;35050;51.316;5.994;2023-02-24T07:51:21;5.57;;;2.17;;
49223;SDS011;35050;51.316;5.994;2023-02-24T07:53:49;4.32;;;1.50;;
49223;SDS011;35050;51.316;5.994;2023-02-24T07:56:21;5.20;;;1.15;;
49223;SDS011;35050;51.316;5.994;2023-02-24T07:59:02;3.67;;;1.52;;
49223;SDS011;35050;51.316;5.994;2023-02-24T08:01:32;6.78;;;1.88;;
49223;SDS011;35050;51.316;5.994;2023-02-24T08:04:13;4.80;;;1.40;;
49223;SDS011;35050;51.316;5.994;2023-02-24T08:06:44;5.90;;;1.70;;
49223;SDS011;35050;51.316;5.994;2023-02-24T08:09:11;5.65;;;1.80;;
49223;SDS011;35050;51.316;5.994;2023-02-24T08:11:43;5.95;;;1.73;;
49223;SDS011;35050;51.316;5.994;2023-02-24T08:14:10;2.92;;;1.45;;
49223;SDS011;35050;51.316;5.994;2023-02-24T08:16:43;4.68;;;1.65;;
49223;SDS011;35050;51.316;5.994;2023-02-24T08:19:14;3.80;;;1.40;;
49223;SDS011;35050;51.316;5.994;2023-02-24T08:21:45;6.05;;;1.80;;
49223;SDS011;35050;51.316;5.994;2023-02-24T08:24:16;6.80;;;1.90;;
49223;SDS011;35050;51.316;5.994;2023-02-24T08:26:52;5.87;;;1.57;;
49223;SDS011;35050;51.316;5.994;2023-02-24T08:29:29;5.65;;;2.05;;
49223;SDS011;35050;51.316;5.994;2023-02-24T08:31:56;4.53;;;1.65;;
49223;SDS011;35050;51.316;5.994;2023-02-24T08:34:23;5.03;;;1.58;;
49223;SDS011;35050;51.316;5.994;2023-02-24T08:36:55;3.43;;;1.63;;
49223;SDS011;35050;51.316;5.994;2023-02-24T08:39:21;6.28;;;2.28;;
49223;SDS011;35050;51.316;5.994;2023-02-24T08:41:47;6.30;;;1.98;;
49223;SDS011;35050;51.316;5.994;2023-02-24T08:44:18;5.45;;;1.90;;
49223;SDS011;35050;51.316;5.994;2023-02-24T08:46:46;9.23;;;2.60;;
49223;SDS011;35050;51.316;5.994;2023-02-24T08:49:16;4.97;;;1.70;;
49223;SDS011;35050;51.316;5.994;2023-02-24T08:51:46;10.45;;;2.10;;
49223;SDS011;35050;51.316;5.994;2023-02-24T08:54:16;5.57;;;1.75;;
49223;SDS011;35050;51.316;5.994;2023-02-24T08:56:53;5.25;;;2.15;;
49223;SDS011;35050;51.316;5.994;2023-02-24T08:59:20;10.48;;;2.90;;
49223;SDS011;35050;51.316;5.994;2023-02-24T09:02:16;7.97;;;2.05;;
49223;SDS011;35050;51.316;5.994;2023-02-24T09:07:25;9.68;;;3.45;;
49223;SDS011;35050;51.316;5.994;2023-02-24T09:09:53;8.25;;;2.50;;
49223;SDS011;35050;51.316;5.994;2023-02-24T09:12:26;6.35;;;1.90;;
49223;SDS011;35050;51.316;5.994;2023-02-24T09:14:57;6.55;;;1.95;;
49223;SDS011;35050;51.316;5.994;2023-02-24T09:17:27;8.48;;;2.40;;
49223;SDS011;35050;51.316;5.994;2023-02-24T09:22:59;10.80;;;2.65;;
49223;SDS011;35050;51.316;5.994;2023-02-24T09:25:27;5.55;;;2.42;;
49223;SDS011;35050;51.316;5.994;2023-02-24T09:28:26;8.48;;;2.50;;
49223;SDS011;35050;51.316;5.994;2023-02-24T09:30:57;12.65;;;2.90;;
49223;SDS011;35050;51.316;5.994;2023-02-24T09:33:29;9.13;;;2.83;;
49223;SDS011;35050;51.316;5.994;2023-02-24T09:36:10;7.75;;;2.67;;
49223;SDS011;35050;51.316;5.994;2023-02-24T09:38:42;10.10;;;2.80;;
49223;SDS011;35050;51.316;5.994;2023-02-24T09:43:56;13.18;;;3.33;;
49223;SDS011;35050;51.316;5.994;2023-02-24T09:47:27;10.02;;;4.13;;
49223;SDS011;35050;51.316;5.994;2023-02-24T09:49:56;8.70;;;3.28;;
49223;SDS011;35050;51.316;5.994;2023-02-24T09:52:25;10.38;;;3.22;;
49223;SDS011;35050;51.316;5.994;2023-02-24T09:55:14;14.63;;;3.25;;
49223;SDS011;35050;51.316;5.994;2023-02-24T09:57:54;11.10;;;3.05;;
49223;SDS011;35050;51.316;5.994;2023-02-24T10:01:03;8.90;;;2.33;;
49223;SDS011;35050;51.316;5.994;2023-02-24T10:03:55;9.68;;;2.47;;
49223;SDS011;35050;51.316;5.994;2023-02-24T10:06:42;6.38;;;1.90;;
49223;SDS011;35050;51.316;5.994;2023-02-24T10:11:50;6.38;;;2.28;;
49223;SDS011;35050;51.316;5.994;2023-02-24T10:14:19;10.15;;;2.55;;
49223;SDS011;35050;51.316;5.994;2023-02-24T10:17:26;9.60;;;2.65;;
49223;SDS011;35050;51.316;5.994;2023-02-24T10:20:06;9.90;;;3.03;;
49223;SDS011;35050;51.316;5.994;2023-02-24T10:22:59;6.35;;;1.83;;
49223;SDS011;35050;51.316;5.994;2023-02-24T10:25:50;8.02;;;2.50;;
49223;SDS011;35050;51.316;5.994;2023-02-24T10:33:49;10.43;;;2.38;;
49223;SDS011;35050;51.316;5.994;2023-02-24T10:36:20;9.20;;;2.65;;
49223;SDS011;35050;51.316;5.994;2023-02-24T10:38:59;11.20;;;3.03;;
49223;SDS011;35050;51.316;5.994;2023-02-24T10:41:43;11.85;;;2.80;;
49223;SDS011;35050;51.316;5.994;2023-02-24T10:44:21;9.80;;;2.45;;
49223;SDS011;35050;51.316;5.994;2023-02-24T10:47:02;12.25;;;3.17;;
49223;SDS011;35050;51.316;5.994;2023-02-24T10:49:40;8.73;;;2.83;;
49223;SDS011;35050;51.316;5.994;2023-02-24T10:52:14;9.90;;;3.38;;
49223;SDS011;35050;51.316;5.994;2023-02-24T10:54:57;12.65;;;3.00;;
49223;SDS011;35050;51.316;5.994;2023-02-24T10:57:32;11.10;;;3.40;;
49223;SDS011;35050;51.316;5.994;2023-02-24T11:00:14;7.93;;;2.80;;
49223;SDS011;35050;51.316;5.994;2023-02-24T11:03:15;9.27;;;2.80;;
49223;SDS011;35050;51.316;5.994;2023-02-24T11:05:49;10.77;;;2.47;;
49223;SDS011;35050;51.316;5.994;2023-02-24T11:08:27;7.43;;;2.42;;
49223;SDS011;35050;51.316;5.994;2023-02-24T11:11:30;11.73;;;2.53;;
49223;SDS011;35050;51.316;5.994;2023-02-24T11:14:18;9.57;;;2.63;;
49223;SDS011;35050;51.316;5.994;2023-02-24T11:17:03;8.75;;;2.50;;
49223;SDS011;35050;51.316;5.994;2023-02-24T11:19:47;7.90;;;2.58;;
49223;SDS011;35050;51.316;5.994;2023-02-24T11:22:22;9.55;;;2.65;;
49223;SDS011;35050;51.316;5.994;2023-02-24T11:24:55;8.13;;;2.78;;
49223;SDS011;35050;51.316;5.994;2023-02-24T11:27:22;6.50;;;2.45;;
49223;SDS011;35050;51.316;5.994;2023-02-24T11:29:59;11.57;;;2.85;;
49223;SDS011;35050;51.316;5.994;2023-02-24T11:33:05;10.80;;;2.40;;
49223;SDS011;35050;51.316;5.994;2023-02-24T11:35:58;8.07;;;2.47;;
49223;SDS011;35050;51.316;5.994;2023-02-24T11:41:35;11.38;;;3.20;;
49223;SDS011;35050;51.316;5.994;2023-02-24T11:44:11;11.48;;;2.97;;
49223;SDS011;35050;51.316;5.994;2023-02-24T11:47:01;8.82;;;2.78;;
49223;SDS011;35050;51.316;5.994;2023-02-24T11:49:38;11.07;;;3.53;;
49223;SDS011;35050;51.316;5.994;2023-02-24T11:52:50;15.48;;;3.20;;
49223;SDS011;35050;51.316;5.994;2023-02-24T11:57:44;8.50;;;2.80;;
49223;SDS011;35050;51.316;5.994;2023-02-24T12:00:15;9.20;;;3.53;;
49223;SDS011;35050;51.316;5.994;2023-02-24T12:05:31;14.38;;;3.75;;
49223;SDS011;35050;51.316;5.994;2023-02-24T12:08:11;14.25;;;3.70;;
49223;SDS011;35050;51.316;5.994;2023-02-24T12:10:41;13.43;;;3.10;;
49223;SDS011;35050;51.316;5.994;2023-02-24T12:13:28;12.90;;;3.65;;
49223;SDS011;35050;51.316;5.994;2023-02-24T12:16:16;9.43;;;2.95;;
49223;SDS011;35050;51.316;5.994;2023-02-24T12:18:57;7.32;;;2.65;;
49223;SDS011;35050;51.316;5.994;2023-02-24T12:21:37;12.10;;;3.20;;
49223;SDS011;35050;51.316;5.994;2023-02-24T12:24:12;4.47;;;2.20;;
49223;SDS011;35050;51.316;5.994;2023-02-24T12:29:56;6.73;;;2.33;;
49223;SDS011;35050;51.316;5.994;2023-02-24T12:35:25;10.52;;;3.13;;
49223;SDS011;35050;51.316;5.994;2023-02-24T12:38:06;11.35;;;3.72;;
49223;SDS011;35050;51.316;5.994;2023-02-24T12:40:55;7.60;;;2.50;;
49223;SDS011;35050;51.316;5.994;2023-02-24T12:43:31;11.10;;;3.92;;
49223;SDS011;35050;51.316;5.994;2023-02-24T13:00:34;10.65;;;4.88;;
49223;SDS011;35050;51.316;5.994;2023-02-24T13:03:21;9.57;;;4.07;;
49223;SDS011;35050;51.316;5.994;2023-02-24T13:11:35;11.88;;;4.70;;
49223;SDS011;35050;51.316;5.994;2023-02-24T13:14:22;7.63;;;4.32;;
49223;SDS011;35050;51.316;5.994;2023-02-24T13:17:03;11.23;;;4.38;;
49223;SDS011;35050;51.316;5.994;2023-02-24T13:19:35;8.27;;;3.80;;
49223;SDS011;35050;51.316;5.994;2023-02-24T13:24:43;12.15;;;5.30;;
49223;SDS011;35050;51.316;5.994;2023-02-24T13:30:00;14.48;;;5.05;;
49223;SDS011;35050;51.316;5.994;2023-02-24T13:32:35;14.38;;;5.10;;
49223;SDS011;35050;51.316;5.994;2023-02-24T13:37:51;17.10;;;4.97;;
49223;SDS011;35050;51.316;5.994;2023-02-24T13:45:27;14.32;;;6.03;;
49223;SDS011;35050;51.316;5.994;2023-02-24T13:50:37;10.80;;;4.97;;
49223;SDS011;35050;51.316;5.994;2023-02-24T13:56:24;9.45;;;5.00;;
49223;SDS011;35050;51.316;5.994;2023-02-24T14:01:44;20.08;;;7.82;;
49223;SDS011;35050;51.316;5.994;2023-02-24T14:06:52;12.63;;;7.20;;
49223;SDS011;35050;51.316;5.994;2023-02-24T14:09:21;11.63;;;7.50;;
49223;SDS011;35050;51.316;5.994;2023-02-24T14:11:52;15.23;;;7.45;;
49223;SDS011;35050;51.316;5.994;2023-02-24T14:14:22;11.07;;;6.88;;
49223;SDS011;35050;51.316;5.994;2023-02-24T14:16:49;12.07;;;6.72;;
49223;SDS011;35050;51.316;5.994;2023-02-24T14:19:15;9.85;;;6.63;;
49223;SDS011;35050;51.316;5.994;2023-02-24T14:21:46;11.02;;;7.05;;
49223;SDS011;35050;51.316;5.994;2023-02-24T14:24:16;12.13;;;8.20;;
49223;SDS011;35050;51.316;5.994;2023-02-24T14:26:43;12.68;;;8.10;;
49223;SDS011;35050;51.316;5.994;2023-02-24T14:29:13;9.15;;;6.70;;
49223;SDS011;35050;51.316;5.994;2023-02-24T14:31:49;11.80;;;7.90;;
49223;SDS011;35050;51.316;5.994;2023-02-24T14:34:17;10.57;;;6.90;;
49223;SDS011;35050;51.316;5.994;2023-02-24T14:36:46;10.90;;;7.20;;
49223;SDS011;35050;51.316;5.994;2023-02-24T14:41:40;15.02;;;8.15;;
49223;SDS011;35050;51.316;5.994;2023-02-24T14:44:23;11.82;;;8.60;;
49223;SDS011;35050;51.316;5.994;2023-02-24T14:46:53;12.65;;;8.55;;
49223;SDS011;35050;51.316;5.994;2023-02-24T14:49:25;12.13;;;7.60;;
49223;SDS011;35050;51.316;5.994;2023-02-24T14:57:07;11.43;;;8.05;;
49223;SDS011;35050;51.316;5.994;2023-02-24T14:59:37;9.27;;;7.38;;
49223;SDS011;35050;51.316;5.994;2023-02-24T15:02:10;11.55;;;8.63;;
49223;SDS011;35050;51.316;5.994;2023-02-24T15:04:43;14.13;;;9.02;;
49223;SDS011;35050;51.316;5.994;2023-02-24T15:07:29;18.15;;;9.63;;
49223;SDS011;35050;51.316;5.994;2023-02-24T15:09:57;10.70;;;8.35;;
49223;SDS011;35050;51.316;5.994;2023-02-24T15:12:28;14.05;;;8.68;;
49223;SDS011;35050;51.316;5.994;2023-02-24T15:15:39;15.35;;;8.73;;
49223;SDS011;35050;51.316;5.994;2023-02-24T15:17:49;14.35;;;7.97;;
49223;SDS011;35050;51.316;5.994;2023-02-24T15:20:31;11.15;;;7.18;;
49223;SDS011;35050;51.316;5.994;2023-02-24T15:22:59;9.35;;;7.20;;
49223;SDS011;35050;51.316;5.994;2023-02-24T15:27:54;8.55;;;6.95;;
49223;SDS011;35050;51.316;5.994;2023-02-24T15:35:26;11.70;;;7.97;;
49223;SDS011;35050;51.316;5.994;2023-02-24T15:37:52;9.45;;;7.18;;
49223;SDS011;35050;51.316;5.994;2023-02-24T15:40:23;13.52;;;7.65;;
49223;SDS011;35050;51.316;5.994;2023-02-24T15:43:06;10.73;;;7.45;;
49223;SDS011;35050;51.316;5.994;2023-02-24T15:45:34;10.30;;;7.07;;
49223;SDS011;35050;51.316;5.994;2023-02-24T15:48:03;9.57;;;6.95;;
49223;SDS011;35050;51.316;5.994;2023-02-24T15:50:45;7.65;;;5.85;;
49223;SDS011;35050;51.316;5.994;2023-02-24T15:53:12;6.95;;;5.40;;
49223;SDS011;35050;51.316;5.994;2023-02-24T15:55:39;7.72;;;4.95;;
49223;SDS011;35050;51.316;5.994;2023-02-24T15:58:10;10.73;;;5.47;;
49223;SDS011;35050;51.316;5.994;2023-02-24T16:00:41;10.23;;;5.60;;
49223;SDS011;35050;51.316;5.994;2023-02-24T16:03:07;7.03;;;4.82;;
49223;SDS011;35050;51.316;5.994;2023-02-24T16:05:33;6.65;;;4.40;;
49223;SDS011;35050;51.316;5.994;2023-02-24T16:07:59;6.78;;;4.25;;
49223;SDS011;35050;51.316;5.994;2023-02-24T16:10:26;7.63;;;4.10;;
49223;SDS011;35050;51.316;5.994;2023-02-24T16:12:58;7.47;;;3.85;;
49223;SDS011;35050;51.316;5.994;2023-02-24T16:15:33;8.80;;;4.05;;
49223;SDS011;35050;51.316;5.994;2023-02-24T16:18:01;5.18;;;3.60;;
49223;SDS011;35050;51.316;5.994;2023-02-24T16:20:28;10.70;;;4.15;;
49223;SDS011;35050;51.316;5.994;2023-02-24T16:23:00;8.10;;;3.60;;
49223;SDS011;35050;51.316;5.994;2023-02-24T16:25:28;8.75;;;3.50;;
49223;SDS011;35050;51.316;5.994;2023-02-24T16:27:59;7.10;;;3.35;;
49223;SDS011;35050;51.316;5.994;2023-02-24T16:30:26;5.60;;;2.80;;
49223;SDS011;35050;51.316;5.994;2023-02-24T16:32:57;7.90;;;2.60;;
49223;SDS011;35050;51.316;5.994;2023-02-24T16:35:24;7.57;;;2.80;;
49223;SDS011;35050;51.316;5.994;2023-02-24T16:37:50;6.40;;;2.53;;
49223;SDS011;35050;51.316;5.994;2023-02-24T16:40:24;7.53;;;2.40;;
49223;SDS011;35050;51.316;5.994;2023-02-24T16:42:54;9.23;;;3.08;;
49223;SDS011;35050;51.316;5.994;2023-02-24T16:45:20;11.10;;;2.35;;
49223;SDS011;35050;51.316;5.994;2023-02-24T16:47:49;9.93;;;2.58;;
49223;SDS011;35050;51.316;5.994;2023-02-24T16:50:20;6.97;;;2.15;;
49223;SDS011;35050;51.316;5.994;2023-02-24T16:52:50;6.88;;;1.88;;
49223;SDS011;35050;51.316;5.994;2023-02-24T16:55:16;8.75;;;2.40;;
49223;SDS011;35050;51.316;5.994;2023-02-24T16:57:42;6.60;;;2.10;;
49223;SDS011;35050;51.316;5.994;2023-02-24T17:00:08;8.25;;;2.33;;
49223;SDS011;35050;51.316;5.994;2023-02-24T17:02:36;7.53;;;2.05;;
49223;SDS011;35050;51.316;5.994;2023-02-24T17:05:04;9.88;;;1.80;;
49223;SDS011;35050;51.316;5.994;2023-02-24T17:07:30;5.70;;;2.00;;
49223;SDS011;35050;51.316;5.994;2023-02-24T17:10:03;8.70;;;1.67;;
49223;SDS011;35050;51.316;5.994;2023-02-24T17:12:29;7.05;;;1.65;;
49223;SDS011;35050;51.316;5.994;2023-02-24T17:14:55;11.20;;;2.00;;
49223;SDS011;35050;51.316;5.994;2023-02-24T17:17:23;8.73;;;2.20;;
49223;SDS011;35050;51.316;5.994;2023-02-24T17:19:48;9.45;;;2.10;;
49223;SDS011;35050;51.316;5.994;2023-02-24T17:22:15;7.97;;;1.75;;
49223;SDS011;35050;51.316;5.994;2023-02-24T17:24:41;14.43;;;2.80;;